Blythe Airport
KBLH : now visible

Airfield :











YOU CAN JOIN US ON...

 
LOGIN :

Register | Disclaimer

   EN    FR    IT 

 









Legend :    VFR   Marginal VFR   IFR   Intensive IFR   Very Intensive IFR
Visi :
Ceiling :
>= 8 km
>= 3000ft
5 to 8 km
1000 to 3000 ft
1500m to 5 km
500 to 1000 ft
800 to 1500m
200 to 500 ft
< 800m
< 200 ft
Symbols :   Thunderstorms  Fog  Heavy snow  Heavy precipitations  Wind > 20 kt






- Airport Elevation : 399 ft


KBLH - Blythe

CURRENT METAR :
  • 070952Z AUTO 33005KT 10SM CLR 23/13 A2997 RMK AO2 SLP143 T02330128 TSNO $

EXPIRED METARs :
  • 070852Z AUTO 03003KT 10SM CLR 23/13 A2998 RMK AO2 SLP145 T02330133 55001 TSNO $
  • 070752Z AUTO 36003KT 10SM CLR 24/14 A2997 RMK AO2 SLP142 T02440139 403670228 TSNO $

TAF KBLH
Valid from the 07 at 06:00 until the 08 at 06:00 UTC


070520Z 0706/0806 VRB04KT P6SM FEW150 FEW250
FM071800 09006KT P6SM FEW150
KZLA FIR / North America



MET'MAP, your aeronautical weather chart ! - Copyright ORBIFLY December 2007 - Disclaimer

ORBIFLY MET'MAP TEAM :

Programming & Development : Alexandra Zaïnal
Original concept : Baudouin d'Aumeries
Technical & hardware support : Manuel Goepfert
Assistance : Marc-Olivier Méhu




SOURCES & CREDITS :

   NOAA       Earth
Advisory